x

Boston 16 Nm East Of Boston, Ma (44013) Wave Buoy

10:50pm - Fri 24th Feb 2017 All times are EST. -5 hours from GMT.

  • Sig Wave height 2.3ft
  • Swell Direction
  • Peak Period 10s
  • Average Period 5s
  • Wind
    16mph, 18mph gusts
  • Sea Temp 43°f
  • Air Temp 49°f
  • Sea Pressure 1010.6mb
  • Boston 16 Nm East Of Boston, Ma
  • Boston 16 Nm East Of Boston, Ma

More Historic Weather Station data

Upgrade to MSW Pro to gain access to the past 30 days of data for over 8000 Wavebouys and Weather Stations around the globe.

Join Pro

Comparision Forecast

View Surf forecast
   
Fri 02/24 10:50pm 2.5ft 10s 5s 16 18 mph 1010.6mb 43f 49f
9:50pm 2.5ft 10s 6s 13
mph
1010.9mb 43f 50f
8:50pm 2.5ft 10s 5s 9
mph
1011.4mb 43f 49f
7:50pm 2.5ft 10s 5s 11
mph
1011.7mb 43f 49f
6:50pm 3ft 10s 5s 16 18 mph 1011.5mb 43f 53f
5:50pm 3ft 10s 4s 18 20 mph 1011mb 43f 55f
4:50pm 3ft 9s 5s 16 20 mph 1010.8mb 43f 55f
3:50pm 3ft 10s 5s 20 25 mph 1010.4mb 43f 58f
2:50pm 3ft 10s 5s 13 16 mph 1010.7mb 43f 57f
1:50pm 2.5ft 10s 5s 16 18 mph 1010.8mb 43f 58f
12:50pm 2.5ft 10s 7s 9 11 mph 1011.5mb 43f 55f
11:50am 2.5ft 10s 8s 11 13 mph 1012.4mb 43f 47f
10:50am 2.5ft 11s 8s 9 11 mph 1013.3mb 43f 46f
9:50am 2.5ft 11s 8s 9 11 mph 1013.2mb 42f 45f
8:50am 2.5ft 11s 7s 11
mph
1013.3mb 42f 45f
7:50am 2.5ft 11s 7s 11 13 mph 1013mb 42f 46f
6:50am 2.5ft 11s 7s 11
mph
1012.7mb 42f 45f
5:50am 2.5ft 11s 7s 13
mph
1012.6mb 42f 47f
4:50am 2.5ft 10s 7s 9 13 mph 1012.3mb 42f 46f
3:50am 2.5ft 10s 7s 7 9 mph 1012mb 42f 45f
2:50am 3.5ft 10s 7s 2
mph
1011.8mb 42f 47f
1:50am 3ft 11s 6s 7
mph
1011.6mb 42f 46f
12:50am 3ft 10s 6s 9
mph
1011mb 42f 47f
Thu 02/23 11:50pm 3.5ft 11s 6s 11
mph
1010.6mb 42f 48f
10:50pm 3.5ft 10s 5s 11
mph
1010mb 42f 48f
9:50pm 3.5ft 11s 5s 13 16 mph 1009.7mb 42f 49f
8:50pm 3.5ft 11s 5s 18 22 mph 1009.1mb 43f 49f
7:50pm 3.5ft 11s 5s 13 16 mph 1008.9mb 43f 49f
6:50pm 3.5ft 11s 5s 11 13 mph 1008.3mb 43f 49f
5:50pm 3.5ft 10s 5s 16 18 mph 1007.1mb 43f 51f
4:50pm 3.5ft 9s 5s 16 18 mph 1006.1mb 43f 52f
3:50pm 3.5ft 9s 6s 16 18 mph 1006.5mb 43f 54f
2:50pm 3.5ft 10s 7s 11 13 mph 1006.8mb 43f 52f
1:50pm 3.5ft 10s 6s 16
mph
1007.1mb 43f 54f
12:50pm 3ft 10s 7s 11 13 mph 1007.8mb 43f 51f
11:50am 3.5ft 10s 7s 11 13 mph 1008.8mb 42f 45f
10:50am 3ft 10s 8s 11 13 mph 1009.8mb 42f 44f
9:50am 3.5ft 10s 8s 9 11 mph 1010.6mb 42f 42f
8:50am 3ft 10s 8s 9 11 mph 1011.1mb 42f 42f
7:50am 3ft 10s 8s 9 11 mph 1010.9mb 42f 42f
6:50am 3ft 8s 8s 7 9 mph 1010.6mb 42f 41f
5:50am 2.5ft 10s 7s 9 11 mph 1010.7mb 42f 41f
4:50am 3ft 10s 8s 9 11 mph 1010.4mb 42f 42f
3:50am 3ft 10s 8s 7
mph
1010.7mb 42f 42f
2:50am 3ft 9s 8s 7 9 mph 1010.9mb 42f 42f
1:50am 2.5ft 10s 8s 7
mph
1010.9mb 42f 42f
12:50am 2.5ft 10s 8s 9
mph
1010.9mb 42f 42f
Wed 02/22 11:50pm 2.5ft 10s 8s 7
mph
1010.9mb 42f 42f
10:50pm 2.5ft 10s 7s 4 7 mph 1011mb 42f 42f
9:50pm 2.5ft 10s 7s 9 11 mph 1011mb 42f 42f
8:50pm 2.5ft 11s 7s 11
mph
1011.4mb 42f 42f
7:50pm 2ft 11s 7s 11 13 mph 1011.5mb 42f 43f
6:50pm 2.5ft 10s 8s 11
mph
1011.3mb 42f 43f
5:50pm 2ft 11s 7s 9
mph
1011.7mb 43f 43f
4:50pm 2ft 8s 7s 9 11 mph 1011.7mb 43f 44f
3:50pm 1.6ft 8s 7s 7 9 mph 1011.3mb 44f 44f
2:50pm 1.6ft 8s 7s 9
mph
1011.5mb 44f 44f
1:50pm 1.6ft 8s 7s 4 7 mph 1012.1mb 44f 46f
12:50pm 1.6ft 8s 6s 2
mph
1012.6mb 43f 46f
11:50am 1.6ft 9s 6s 4
mph
1013.6mb 42f 43f
10:50am 1.6ft 9s 5s 7 9 mph 1014.4mb 42f 42f
9:50am 2ft 9s 5s 11
mph
1015.2mb 42f 41f
8:50am 2ft 7s 5s 9 11 mph 1016mb 42f 41f
7:50am 2ft 8s 5s 9 11 mph 1015.9mb 42f 41f
5:50am 2.5ft 7s 4s 13 16 mph 1015.9mb 42f 41f
4:50am 2.5ft 8s 4s 13 16 mph 1016.3mb 42f 40f
3:50am 2.5ft 8s 4s 13 18 mph 1017.1mb 42f 39f
2:50am 2.5ft 8s 4s 16
mph
1017mb 42f 39f
1:50am 2.5ft 7s 4s 16 18 mph 1017.8mb 42f 39f
12:50am 2.5ft 7s 5s 16 18 mph 1018.7mb 42f 38f
Tue 02/21 11:50pm 2.5ft 8s 4s 13 16 mph 1019.6mb 42f 38f
10:50pm 2.5ft 8s 4s 16 20 mph 1019.9mb 42f 38f
9:50pm 2.5ft 6s 4s 16 18 mph 1020.6mb 42f 39f
8:50pm 3ft 3s 4s 18 20 mph 1021.5mb 42f 39f
7:50pm 3ft 6s 4s 20 22 mph 1021.2mb 42f 39f
6:50pm 3ft 7s 4s 18 22 mph 1022.1mb 42f 40f
5:50pm 3ft 6s 5s 16 20 mph 1022.2mb 42f 38f
4:50pm 3ft 6s 5s 13 16 mph 1022.7mb 42f 38f
3:50pm 3ft 6s 5s 11 13 mph 1023.4mb 42f 38f
2:50pm 2.5ft 6s 5s 9 13 mph 1024mb 42f 38f
1:50pm 3ft 6s 5s 7
mph
1024.9mb 42f 38f
12:50pm 2.5ft 7s 5s 2 4 mph 1026mb 42f 38f
11:50am 2.5ft 6s 5s 4 9 mph 1026.7mb 42f 37f
10:50am 3ft 6s 5s 7 9 mph 1027.5mb 42f 37f
9:50am 3ft 6s 5s 9 11 mph 1028.1mb 42f 38f
8:50am 3ft 6s 5s 7 9 mph 1028.2mb 42f 37f
7:50am 3ft 6s 4s 11 13 mph 1028.4mb 42f 36f
6:50am 3ft 6s 4s 11
mph
1028mb 42f 36f
5:50am 3.5ft 6s 5s 9 11 mph 1027.4mb 42f 37f
4:50am 3.5ft 6s 5s 11 13 mph 1027.4mb 42f 38f